Time;durP1;ratioP1;P1;durP2;ratioP2;P2;SDS_P1;SDS_P2;PMS_P1;PMS_P2;Temp;Humidity;BMP_temperature;BMP_pressure;BME280_temperature;BME280_humidity;BME280_pressure;Samples;Min_cycle;Max_cycle;Signal;HPM_P1;HPM_P2
2022/08/31 00:05:27;;;;;;;2.17;1.00;;;13.50;99.90;;;;;;5008971;28;20881;-81
2022/08/31 00:07:55;;;;;;;2.70;1.10;;;13.50;99.90;;;;;;5024386;28;20399;-81
2022/08/31 00:10:28;;;;;;;2.53;1.00;;;13.50;99.90;;;;;;5007676;28;20391;-80
2022/08/31 00:13:03;;;;;;;4.17;1.10;;;13.60;99.90;;;;;;5009013;28;20413;-80
2022/08/31 00:15:39;;;;;;;3.70;1.02;;;13.50;99.90;;;;;;5009165;28;20889;-80
2022/08/31 00:18:07;;;;;;;3.25;1.30;;;13.50;99.90;;;;;;5008881;28;20471;-81
2022/08/31 00:20:35;;;;;;;2.78;1.50;;;13.50;99.90;;;;;;5008827;28;20461;-80
2022/08/31 00:23:06;;;;;;;1.98;1.08;;;13.40;99.90;;;;;;5008872;28;20399;-81
2022/08/31 00:25:34;;;;;;;3.25;1.30;;;13.40;99.90;;;;;;5023982;28;20820;-81
2022/08/31 00:28:03;;;;;;;2.92;1.30;;;13.40;99.90;;;;;;5023937;28;20385;-81
2022/08/31 00:30:32;;;;;;;3.77;1.20;;;13.30;99.90;;;;;;5023790;28;20387;-81
2022/08/31 00:33:00;;;;;;;3.38;1.10;;;13.40;99.90;;;;;;5008708;28;20391;-81
2022/08/31 00:35:29;;;;;;;2.95;1.40;;;13.30;99.90;;;;;;5007244;28;20410;-80
2022/08/31 00:37:59;;;;;;;4.90;1.30;;;13.40;99.90;;;;;;5023802;28;20406;-80
2022/08/31 00:40:27;;;;;;;3.83;1.20;;;13.30;99.90;;;;;;5023571;28;20894;-81
2022/08/31 00:42:55;;;;;;;4.07;1.20;;;13.20;99.90;;;;;;5008557;28;20507;-81
2022/08/31 00:45:23;;;;;;;4.50;1.20;;;13.20;99.90;;;;;;5026194;28;20379;-80
2022/08/31 00:47:51;;;;;;;3.90;1.30;;;13.20;99.90;;;;;;5010971;28;20754;-81
2022/08/31 00:50:22;;;;;;;5.00;1.38;;;13.30;99.90;;;;;;5012240;28;20394;-81
2022/08/31 00:52:54;;;;;;;3.72;1.10;;;13.20;99.90;;;;;;5010757;28;20972;-80
2022/08/31 00:55:48;;;;;;;2.90;1.00;;;13.10;99.90;;;;;;5011849;28;20404;-81
2022/08/31 00:58:16;;;;;;;5.90;1.40;;;13.10;99.90;;;;;;5013693;28;20407;-80
2022/08/31 01:00:44;;;;;;;2.38;1.15;;;13.10;99.90;;;;;;5011800;28;20963;-81
2022/08/31 01:03:12;;;;;;;4.13;1.33;;;13.00;99.90;;;;;;5011735;28;20403;-81
2022/08/31 01:05:40;;;;;;;3.35;1.20;;;13.00;99.90;;;;;;5027001;28;20387;-80
2022/08/31 01:08:08;;;;;;;4.90;1.40;;;12.90;99.90;;;;;;5016350;28;20749;-81
2022/08/31 01:10:39;;;;;;;5.45;1.30;;;12.90;99.90;;;;;;5025153;28;20464;-81
2022/08/31 01:13:07;;;;;;;4.40;1.40;;;12.80;99.90;;;;;;5031448;28;20386;-81
2022/08/31 01:15:36;;;;;;;2.83;1.33;;;12.80;99.90;;;;;;5031316;28;20936;-81
2022/08/31 01:18:06;;;;;;;3.25;1.10;;;12.80;99.90;;;;;;5030030;28;20428;-80
2022/08/31 01:20:47;;;;;;;2.67;1.20;;;12.80;99.90;;;;;;5031240;28;20386;-81
2022/08/31 01:23:26;;;;;;;3.50;1.30;;;12.70;99.90;;;;;;5029932;28;20406;-81
2022/08/31 01:25:57;;;;;;;2.88;1.30;;;12.60;99.90;;;;;;5029997;28;20871;-80
2022/08/31 01:28:25;;;;;;;3.70;1.30;;;12.70;99.90;;;;;;5031151;28;20414;-80
2022/08/31 01:31:01;;;;;;;3.95;1.50;;;12.60;99.90;;;;;;5029836;28;20903;-80
2022/08/31 01:33:31;;;;;;;4.32;1.33;;;12.50;99.90;;;;;;5063107;28;20398;-80
2022/08/31 01:35:59;;;;;;;3.08;1.40;;;12.50;99.90;;;;;;5031019;28;20398;-80
2022/08/31 01:38:28;;;;;;;4.45;1.80;;;12.50;99.90;;;;;;5031007;28;20421;-81
2022/08/31 01:41:00;;;;;;;3.00;1.35;;;12.50;99.90;;;;;;5029726;28;20440;-81
2022/08/31 01:43:32;;;;;;;5.40;1.50;;;12.50;99.90;;;;;;5029573;28;20805;-79
2022/08/31 01:46:09;;;;;;;4.72;1.70;;;12.30;99.90;;;;;;5026968;28;20733;-79
2022/08/31 01:48:38;;;;;;;5.20;1.70;;;12.40;99.90;;;;;;5018436;28;20396;-78
2022/08/31 01:51:09;;;;;;;5.32;1.75;;;12.50;99.90;;;;;;5042930;28;20392;-81
2022/08/31 01:53:42;;;;;;;6.68;1.90;;;12.50;99.90;;;;;;5026270;28;20924;-79
2022/08/31 01:56:27;;;;;;;2.40;1.25;;;12.50;99.90;;;;;;5010385;28;20485;-80
2022/08/31 01:58:58;;;;;;;7.38;1.88;;;12.50;99.90;;;;;;5010933;28;20432;-81
2022/08/31 02:01:36;;;;;;;7.10;2.03;;;12.40;99.90;;;;;;5010794;28;20407;-81
2022/08/31 02:04:06;;;;;;;5.90;1.50;;;12.40;99.90;;;;;;5011001;28;20788;-81
2022/08/31 02:06:35;;;;;;;3.90;1.40;;;12.50;99.90;;;;;;5011140;28;20489;-81
2022/08/31 02:09:05;;;;;;;3.60;1.60;;;12.50;99.90;;;;;;5026011;28;20388;-80
2022/08/31 02:11:33;;;;;;;3.65;1.52;;;12.40;99.90;;;;;;5010786;28;20822;-80
2022/08/31 02:14:00;;;;;;;4.03;1.50;;;12.30;99.90;;;;;;5009648;28;20408;-80
2022/08/31 02:16:28;;;;;;;5.07;1.30;;;12.30;99.90;;;;;;5009440;28;20495;-79
2022/08/31 02:18:56;;;;;;;4.38;1.60;;;12.40;99.90;;;;;;5009300;28;20972;-80
2022/08/31 02:21:24;;;;;;;3.15;1.55;;;12.40;99.90;;;;;;5025426;28;20407;-80
2022/08/31 02:23:52;;;;;;;4.20;1.35;;;12.30;99.90;;;;;;5025547;28;20452;-80
2022/08/31 02:26:20;;;;;;;1.85;1.10;;;12.20;99.90;;;;;;5042306;28;20399;-81
2022/08/31 02:28:49;;;;;;;4.07;1.30;;;12.20;99.90;;;;;;5010518;28;20727;-81
2022/08/31 02:31:17;;;;;;;3.20;1.23;;;12.20;99.90;;;;;;5010472;28;20399;-80
2022/08/31 02:33:55;;;;;;;3.22;1.20;;;12.20;99.90;;;;;;5042148;28;20407;-80
2022/08/31 02:36:23;;;;;;;2.92;1.10;;;12.20;99.90;;;;;;5010450;28;20800;-80
2022/08/31 02:38:52;;;;;;;2.57;1.20;;;12.10;99.90;;;;;;5010351;28;20402;-80
2022/08/31 02:41:20;;;;;;;4.53;1.20;;;12.00;99.90;;;;;;5041985;28;20435;-80
2022/08/31 02:43:48;;;;;;;5.70;1.33;;;12.00;99.90;;;;;;5008949;28;20395;-81
2022/08/31 02:46:16;;;;;;;4.17;1.23;;;11.90;99.90;;;;;;5025372;28;20779;-81
2022/08/31 02:48:53;;;;;;;4.85;1.42;;;11.80;99.90;;;;;;5041878;28;20400;-81
2022/08/31 02:51:21;;;;;;;3.67;1.10;;;11.80;99.90;;;;;;5009027;28;20778;-80
2022/08/31 02:53:50;;;;;;;3.58;1.20;;;11.80;99.90;;;;;;5010126;28;20395;-80
2022/08/31 02:56:17;;;;;;;2.83;1.02;;;11.90;99.90;;;;;;5010076;28;20464;-80
2022/08/31 02:58:45;;;;;;;3.03;1.13;;;11.90;99.90;;;;;;5008693;28;20434;-80
2022/08/31 03:01:12;;;;;;;3.50;1.15;;;11.90;99.90;;;;;;5018768;28;20403;-80
2022/08/31 03:03:40;;;;;;;3.40;1.08;;;11.90;99.90;;;;;;5008665;28;20402;-80
2022/08/31 03:06:14;;;;;;;6.55;1.20;;;12.00;99.90;;;;;;5011305;28;20419;-80
2022/08/31 03:08:41;;;;;;;3.35;0.90;;;11.90;99.90;;;;;;5029762;28;20382;-80
2022/08/31 03:11:09;;;;;;;4.70;1.50;;;11.80;99.90;;;;;;5028361;28;20405;-79
2022/08/31 03:13:39;;;;;;;3.27;0.97;;;11.80;99.90;;;;;;5028307;28;20871;-80
2022/08/31 03:16:08;;;;;;;4.43;1.00;;;11.80;99.90;;;;;;5028328;28;20787;-80
2022/08/31 03:18:35;;;;;;;2.92;1.10;;;11.70;99.90;;;;;;5028131;28;20394;-80
2022/08/31 03:21:03;;;;;;;4.38;1.10;;;11.70;99.90;;;;;;5029356;28;20393;-80
2022/08/31 03:23:31;;;;;;;3.25;1.10;;;11.70;99.90;;;;;;5028193;28;20405;-80
2022/08/31 03:25:59;;;;;;;4.30;1.13;;;11.70;99.90;;;;;;5021078;28;20403;-80
2022/08/31 03:28:26;;;;;;;2.88;1.23;;;11.60;99.90;;;;;;5050847;28;20404;-79
2022/08/31 03:31:12;;;;;;;4.68;1.30;;;11.60;99.90;;;;;;5024647;28;20415;-80
2022/08/31 03:33:40;;;;;;;2.30;1.13;;;11.50;99.90;;;;;;5008687;28;20789;-80
2022/08/31 03:36:08;;;;;;;6.15;1.20;;;11.60;99.90;;;;;;5009437;28;20394;-80
2022/08/31 03:38:36;;;;;;;4.43;1.05;;;11.60;99.90;;;;;;5041266;28;20935;-79
2022/08/31 03:41:04;;;;;;;2.63;1.17;;;11.50;99.90;;;;;;5009411;28;20395;-80
2022/08/31 03:43:35;;;;;;;2.50;0.98;;;11.50;99.90;;;;;;5008261;28;20403;-80
2022/08/31 03:46:03;;;;;;;3.27;1.00;;;11.40;99.90;;;;;;5008031;28;20384;-80
2022/08/31 03:48:39;;;;;;;3.30;0.98;;;11.30;99.90;;;;;;5007955;28;20400;-80
2022/08/31 03:51:07;;;;;;;3.20;0.90;;;11.40;99.90;;;;;;5008012;28;20391;-79
2022/08/31 03:53:36;;;;;;;2.60;1.10;;;11.50;99.90;;;;;;5007869;28;20403;-81
2022/08/31 03:56:07;;;;;;;5.40;1.33;;;11.50;99.90;;;;;;5008136;28;20414;-80
2022/08/31 03:58:40;;;;;;;4.22;0.98;;;11.50;99.90;;;;;;5007871;28;20391;-80
2022/08/31 04:01:12;;;;;;;2.80;1.10;;;11.50;99.90;;;;;;5010397;28;20401;-79
2022/08/31 04:03:57;;;;;;;1.83;1.00;;;11.20;99.90;;;;;;5028667;28;20751;-80
2022/08/31 04:06:44;;;;;;;3.85;0.88;;;11.30;99.90;;;;;;5009112;28;20425;-80
2022/08/31 04:09:30;;;;;;;2.35;0.98;;;11.30;99.90;;;;;;5023915;28;20430;-79
2022/08/31 04:12:17;;;;;;;4.80;1.20;;;11.20;99.90;;;;;;5008762;28;20391;-79
2022/08/31 04:15:04;;;;;;;4.88;1.00;;;11.20;99.90;;;;;;5015747;28;20456;-79
2022/08/31 04:17:50;;;;;;;3.25;1.17;;;11.20;99.90;;;;;;5044451;28;20541;-79
2022/08/31 04:20:44;;;;;;;2.38;1.10;;;11.30;99.90;;;;;;5051128;28;20405;-81
2022/08/31 04:23:12;;;;;;;2.40;1.05;;;11.20;99.90;;;;;;5009943;28;20419;-81
2022/08/31 04:25:50;;;;;;;3.70;1.40;;;11.10;99.90;;;;;;5018297;28;20496;-79
2022/08/31 04:28:18;;;;;;;2.83;1.10;;;11.20;99.90;;;;;;5019599;28;20403;-80
2022/08/31 04:30:47;;;;;;;3.87;1.20;;;11.30;99.90;;;;;;5008636;28;20480;-79
2022/08/31 04:33:16;;;;;;;2.42;1.08;;;11.10;99.90;;;;;;5008910;28;20399;-79
2022/08/31 04:35:44;;;;;;;4.30;1.30;;;11.00;99.90;;;;;;5011992;28;20453;-79
2022/08/31 04:38:12;;;;;;;3.55;1.10;;;10.90;99.90;;;;;;5016073;28;20510;-80
2022/08/31 04:40:42;;;;;;;2.22;0.90;;;10.90;99.90;;;;;;5015972;28;20731;-80
2022/08/31 04:43:10;;;;;;;4.32;1.08;;;11.00;99.90;;;;;;5045204;27;20413;-80
2022/08/31 04:45:42;;;;;;;4.43;1.13;;;11.10;99.90;;;;;;5016344;28;20403;-80
2022/08/31 04:48:13;;;;;;;8.70;1.00;;;11.20;99.90;;;;;;5008804;28;20479;-81
2022/08/31 04:50:42;;;;;;;4.03;0.97;;;11.20;99.90;;;;;;5019141;28;20412;-82
2022/08/31 04:53:10;;;;;;;2.47;0.90;;;11.20;99.90;;;;;;5019226;28;20478;-80
2022/08/31 04:55:41;;;;;;;4.35;1.42;;;11.20;99.90;;;;;;5020517;28;20455;-82
2022/08/31 04:58:12;;;;;;;4.77;1.40;;;11.20;99.90;;;;;;5018587;28;20810;-81
2022/08/31 05:00:42;;;;;;;6.53;1.90;;;11.10;99.90;;;;;;5012778;28;20877;-79
2022/08/31 05:03:17;;;;;;;2.28;1.20;;;11.10;99.90;;;;;;5016913;28;20841;-81
2022/08/31 05:05:49;;;;;;;2.25;1.10;;;11.20;99.90;;;;;;5015846;28;20411;-81
2022/08/31 05:08:19;;;;;;;1.92;1.00;;;11.20;99.90;;;;;;5017988;28;20404;-82
2022/08/31 05:10:47;;;;;;;3.08;1.10;;;11.20;99.90;;;;;;5017479;28;20409;-81
2022/08/31 05:13:14;;;;;;;5.18;1.95;;;11.20;99.90;;;;;;5016181;28;20893;-81
2022/08/31 05:15:43;;;;;;;4.20;1.40;;;11.10;99.90;;;;;;5007576;28;20502;-79
2022/08/31 05:18:16;;;;;;;3.35;1.10;;;11.20;99.90;;;;;;5016956;28;20402;-81
2022/08/31 05:20:54;;;;;;;3.55;1.40;;;11.20;99.90;;;;;;5023784;28;20805;-82
2022/08/31 05:23:21;;;;;;;3.30;1.05;;;11.20;99.90;;;;;;5005973;28;20408;-81
2022/08/31 05:25:49;;;;;;;2.70;1.30;;;11.20;99.90;;;;;;5015508;28;20391;-81
2022/08/31 05:28:21;;;;;;;4.57;1.20;;;11.20;99.90;;;;;;5008196;28;20419;-82
2022/08/31 05:30:49;;;;;;;3.80;1.60;;;11.20;99.90;;;;;;5012214;28;20412;-82
2022/08/31 05:33:32;;;;;;;4.13;1.65;;;11.20;99.90;;;;;;5016078;28;20471;-80
2022/08/31 05:36:01;;;;;;;5.60;1.92;;;11.20;99.90;;;;;;5018904;28;20407;-81
2022/08/31 05:38:29;;;;;;;4.72;1.10;;;11.30;99.90;;;;;;5021157;28;20493;-81
2022/08/31 05:40:58;;;;;;;1.70;0.85;;;11.30;99.90;;;;;;5043341;28;20758;-81
2022/08/31 05:43:26;;;;;;;2.88;0.98;;;11.20;99.90;;;;;;5050340;28;20768;-82
2022/08/31 05:45:54;;;;;;;2.60;1.10;;;11.20;99.90;;;;;;5017822;28;20419;-82
2022/08/31 05:48:24;;;;;;;2.20;1.00;;;11.20;99.90;;;;;;5019152;28;20411;-82
2022/08/31 05:51:00;;;;;;;2.13;0.90;;;11.30;99.90;;;;;;5019808;28;20444;-80
2022/08/31 05:53:28;;;;;;;3.30;0.90;;;11.30;99.90;;;;;;5052566;28;20415;-82
2022/08/31 05:56:05;;;;;;;3.67;1.10;;;11.30;99.90;;;;;;5019661;28;20405;-81
2022/08/31 05:58:33;;;;;;;3.05;1.00;;;11.30;99.90;;;;;;5016308;28;20395;-82
2022/08/31 06:01:00;;;;;;;1.53;0.90;;;11.40;99.90;;;;;;5053842;28;20398;-82
2022/08/31 06:03:49;;;;;;;1.80;1.00;;;11.40;99.90;;;;;;5019233;28;20414;-81
2022/08/31 06:06:17;;;;;;;2.17;1.35;;;11.50;99.90;;;;;;5028886;28;20925;-82
2022/08/31 06:08:45;;;;;;;3.67;1.00;;;11.40;99.90;;;;;;5021626;28;20413;-81
2022/08/31 06:11:18;;;;;;;1.88;1.15;;;11.30;99.90;;;;;;5053605;27;20745;-79
2022/08/31 06:13:49;;;;;;;2.65;1.00;;;11.40;99.90;;;;;;5009901;28;20404;-82
2022/08/31 06:16:18;;;;;;;1.80;1.20;;;11.30;99.90;;;;;;5019061;28;20789;-81
2022/08/31 06:18:49;;;;;;;2.47;1.30;;;11.20;99.90;;;;;;5042440;28;20391;-81
2022/08/31 06:21:21;;;;;;;2.97;1.30;;;11.30;99.90;;;;;;5011311;28;20411;-81
2022/08/31 06:23:51;;;;;;;2.60;1.13;;;11.30;99.90;;;;;;5014751;28;20421;-81
2022/08/31 06:26:22;;;;;;;2.60;1.40;;;11.40;99.90;;;;;;5015556;28;20427;-80
2022/08/31 06:28:52;;;;;;;3.00;1.30;;;11.40;99.90;;;;;;5015692;28;20410;-81
2022/08/31 06:31:32;;;;;;;2.38;1.48;;;11.30;99.90;;;;;;5018619;28;20460;-80
2022/08/31 06:34:02;;;;;;;2.75;1.63;;;11.40;99.90;;;;;;5003360;28;20887;-81
2022/08/31 06:36:49;;;;;;;2.47;1.55;;;11.50;99.90;;;;;;5012557;28;20409;-81
2022/08/31 06:39:40;;;;;;;1.75;1.48;;;11.40;99.90;;;;;;5021928;28;20413;-82
2022/08/31 06:42:20;;;;;;;1.83;1.42;;;11.40;99.90;;;;;;5012873;28;20969;-81
2022/08/31 06:45:10;;;;;;;2.37;1.53;;;11.40;99.90;;;;;;5053207;28;20440;-81
2022/08/31 06:47:41;;;;;;;1.60;1.50;;;11.40;99.90;;;;;;5019056;28;20418;-82
2022/08/31 06:50:12;;;;;;;2.22;1.55;;;11.40;99.90;;;;;;5018404;28;20909;-82
2022/08/31 06:52:40;;;;;;;1.98;1.77;;;11.50;99.90;;;;;;5050361;28;20895;-81
2022/08/31 06:55:27;;;;;;;3.30;1.80;;;11.50;99.90;;;;;;5027757;28;20394;-82
2022/08/31 06:58:14;;;;;;;2.20;1.40;;;11.60;99.90;;;;;;5018864;28;20385;-81
2022/08/31 07:01:12;;;;;;;1.75;1.50;;;11.60;99.90;;;;;;5023025;28;20405;-82
2022/08/31 07:04:07;;;;;;;2.70;1.60;;;11.60;99.90;;;;;;5023698;28;20415;-81
2022/08/31 07:06:41;;;;;;;3.00;1.50;;;11.60;99.90;;;;;;5028635;28;20419;-82
2022/08/31 07:09:14;;;;;;;1.95;1.40;;;11.60;99.90;;;;;;5018102;28;20398;-81
2022/08/31 07:11:48;;;;;;;2.15;1.42;;;11.60;99.90;;;;;;5019779;28;20384;-82
2022/08/31 07:14:22;;;;;;;3.08;1.70;;;11.60;99.90;;;;;;5012308;28;20433;-80
2022/08/31 07:16:53;;;;;;;1.90;1.30;;;11.70;99.90;;;;;;5020921;28;20412;-81
2022/08/31 07:19:22;;;;;;;2.00;1.40;;;11.70;99.90;;;;;;5017210;28;20395;-81
2022/08/31 07:21:58;;;;;;;1.85;1.30;;;11.80;99.90;;;;;;5013874;28;20419;-81
2022/08/31 07:24:33;;;;;;;1.70;1.30;;;11.80;99.90;;;;;;5017622;28;20412;-81
2022/08/31 07:27:10;;;;;;;2.57;1.30;;;11.80;99.90;;;;;;5017216;28;20434;-80
2022/08/31 07:29:59;;;;;;;2.67;1.55;;;11.80;99.90;;;;;;5052305;28;20459;-80
2022/08/31 07:32:31;;;;;;;1.70;1.50;;;11.90;99.90;;;;;;5017697;28;20409;-81
2022/08/31 07:34:59;;;;;;;2.55;1.42;;;12.00;99.90;;;;;;5027930;28;20405;-81
2022/08/31 07:43:22;;;;;;;2.60;1.33;;;12.00;99.90;;;;;;5015298;28;20411;-81
2022/08/31 07:45:50;;;;;;;2.78;1.20;;;12.00;99.90;;;;;;5017801;28;20470;-80
2022/08/31 07:48:24;;;;;;;2.28;1.27;;;12.10;99.90;;;;;;5021580;28;20403;-82
2022/08/31 07:51:14;;;;;;;1.52;1.27;;;12.10;99.90;;;;;;5018982;28;20413;-81
2022/08/31 07:53:54;;;;;;;1.85;1.10;;;12.10;99.90;;;;;;5015821;28;20432;-81
2022/08/31 07:56:37;;;;;;;1.77;1.10;;;12.20;99.90;;;;;;5017658;28;20418;-80
2022/08/31 07:59:22;;;;;;;2.50;1.20;;;12.40;99.90;;;;;;5017110;28;20418;-82
2022/08/31 08:01:54;;;;;;;3.25;1.00;;;12.30;99.90;;;;;;5017125;28;20498;-80
2022/08/31 08:04:26;;;;;;;2.50;1.00;;;12.30;99.90;;;;;;5016827;28;20830;-80
2022/08/31 08:07:16;;;;;;;2.03;1.30;;;12.30;99.90;;;;;;5016218;28;20856;-79
2022/08/31 08:10:17;;;;;;;1.90;1.10;;;12.30;99.90;;;;;;5028437;28;20411;-80
2022/08/31 08:13:04;;;;;;;2.70;1.17;;;12.40;99.90;;;;;;5011774;28;20390;-81
2022/08/31 08:15:44;;;;;;;1.47;0.90;;;12.40;99.90;;;;;;5018523;28;20761;-80
2022/08/31 08:18:25;;;;;;;2.70;1.00;;;12.50;99.90;;;;;;5011264;28;20406;-79
2022/08/31 08:20:57;;;;;;;1.50;1.00;;;12.50;99.90;;;;;;5054586;28;21018;-80
2022/08/31 08:23:25;;;;;;;1.70;1.10;;;12.50;99.90;;;;;;5033555;28;20414;-79
2022/08/31 08:26:10;;;;;;;1.10;0.95;;;12.60;99.90;;;;;;5017057;28;20412;-80
2022/08/31 08:29:09;;;;;;;2.17;1.20;;;12.60;99.90;;;;;;5051729;28;20409;-80
2022/08/31 08:31:41;;;;;;;1.45;1.00;;;12.70;99.90;;;;;;5049038;27;20414;-78
2022/08/31 08:34:10;;;;;;;7.57;1.20;;;12.60;99.90;;;;;;5021004;28;20425;-79
2022/08/31 08:36:39;;;;;;;2.33;1.50;;;12.60;99.90;;;;;;5006977;28;20383;-80
2022/08/31 08:39:09;;;;;;;2.40;1.20;;;12.60;99.90;;;;;;5015744;28;20884;-80
2022/08/31 08:41:53;;;;;;;3.92;1.30;;;12.50;99.90;;;;;;5012840;28;20427;-80
2022/08/31 08:44:23;;;;;;;2.72;1.30;;;12.60;99.90;;;;;;5010121;28;20414;-80
2022/08/31 08:46:55;;;;;;;3.33;1.30;;;12.70;99.90;;;;;;5014827;28;20406;-79
2022/08/31 08:49:39;;;;;;;2.10;1.20;;;12.70;99.90;;;;;;5017149;28;20410;-80
2022/08/31 08:52:32;;;;;;;1.80;1.20;;;12.70;99.90;;;;;;5051020;28;20405;-80
2022/08/31 08:55:05;;;;;;;1.60;1.25;;;12.80;99.90;;;;;;5016962;28;20432;-79
2022/08/31 08:57:37;;;;;;;4.37;1.37;;;12.80;99.90;;;;;;5018078;28;20401;-81
2022/08/31 09:00:10;;;;;;;3.00;1.33;;;13.00;99.90;;;;;;5020375;28;20397;-80
2022/08/31 09:02:56;;;;;;;3.83;1.60;;;13.00;99.90;;;;;;5050947;28;20406;-81
2022/08/31 09:05:55;;;;;;;3.63;1.27;;;13.00;99.90;;;;;;5018358;28;20992;-81
2022/08/31 09:08:54;;;;;;;2.88;1.40;;;13.10;99.90;;;;;;5026462;28;20387;-79
2022/08/31 09:11:29;;;;;;;2.40;1.50;;;13.00;99.90;;;;;;5011648;28;20865;-80
2022/08/31 09:14:17;;;;;;;2.40;1.50;;;13.00;99.90;;;;;;5027211;28;20410;-80
2022/08/31 09:16:58;;;;;;;4.75;1.67;;;13.00;99.90;;;;;;5021732;28;20409;-80
2022/08/31 09:19:26;;;;;;;1.88;1.35;;;13.10;99.90;;;;;;5021616;28;20409;-80
2022/08/31 09:21:56;;;;;;;1.73;1.30;;;13.20;99.90;;;;;;5012850;28;20430;-80
2022/08/31 09:24:26;;;;;;;2.33;1.40;;;13.30;99.90;;;;;;5019247;28;20494;-80
2022/08/31 09:27:17;;;;;;;4.20;1.57;;;13.30;99.90;;;;;;5019522;28;20847;-80
2022/08/31 09:29:52;;;;;;;5.03;1.58;;;13.20;99.90;;;;;;5020335;28;20475;-79
2022/08/31 09:32:38;;;;;;;2.22;1.30;;;13.30;99.90;;;;;;5052385;27;20989;-80
2022/08/31 09:35:28;;;;;;;3.20;1.65;;;13.20;99.90;;;;;;5021874;28;20931;-80
2022/08/31 09:38:15;;;;;;;2.58;1.27;;;13.00;99.90;;;;;;5019189;27;20418;-78
2022/08/31 09:40:51;;;;;;;2.03;1.50;;;13.00;99.90;;;;;;5022084;27;20506;-80
2022/08/31 09:43:23;;;;;;;2.33;1.30;;;13.10;99.90;;;;;;5027933;28;20408;-80
2022/08/31 09:46:18;;;;;;;3.10;1.30;;;13.10;99.90;;;;;;5025220;28;20405;-80
2022/08/31 09:48:55;;;;;;;3.75;1.80;;;13.10;99.90;;;;;;5029550;28;20398;-79
2022/08/31 09:51:33;;;;;;;2.33;1.50;;;13.10;99.90;;;;;;5019828;28;20431;-80
2022/08/31 09:57:04;;;;;;;4.18;2.00;;;13.00;99.90;;;;;;5021404;28;20424;-79
2022/08/31 09:59:36;;;;;;;3.20;1.50;;;13.10;99.90;;;;;;5010412;28;20960;-80
2022/08/31 10:02:25;;;;;;;2.83;1.50;;;13.30;99.90;;;;;;5010418;28;20958;-81
2022/08/31 10:04:56;;;;;;;2.00;1.60;;;13.50;99.90;;;;;;5016045;28;20897;-80
2022/08/31 10:07:50;;;;;;;2.60;1.80;;;13.40;99.90;;;;;;5023071;28;20397;-79
2022/08/31 10:10:32;;;;;;;2.10;1.48;;;13.40;99.90;;;;;;5020508;28;20437;-80
2022/08/31 10:13:21;;;;;;;2.90;1.65;;;13.50;99.90;;;;;;5014450;28;20399;-80
2022/08/31 10:15:58;;;;;;;2.97;1.33;;;13.50;99.90;;;;;;5018120;28;20415;-80
2022/08/31 10:18:40;;;;;;;2.35;1.40;;;13.70;99.90;;;;;;5033756;27;20409;-80
2022/08/31 10:21:23;;;;;;;3.33;1.95;;;13.90;99.90;;;;;;5015498;28;20807;-79
2022/08/31 10:24:09;;;;;;;2.47;1.40;;;13.80;99.90;;;;;;5016465;27;20897;-80
2022/08/31 10:26:45;;;;;;;2.28;1.63;;;13.70;99.90;;;;;;5021491;28;20402;-78
2022/08/31 10:29:22;;;;;;;1.70;1.50;;;13.60;99.90;;;;;;5013366;28;20405;-81
2022/08/31 10:31:56;;;;;;;2.30;1.42;;;13.90;99.90;;;;;;5023367;28;20653;-79
2022/08/31 10:37:49;;;;;;;3.40;1.58;;;13.90;99.90;;;;;;5010225;28;20403;-80
2022/08/31 10:40:31;;;;;;;2.65;1.70;;;13.80;99.90;;;;;;5020059;28;20395;-80
2022/08/31 10:43:21;;;;;;;2.55;1.45;;;13.90;99.90;;;;;;5009692;28;20460;-79
2022/08/31 10:45:52;;;;;;;2.28;1.50;;;14.10;99.90;;;;;;5013369;28;20403;-79
2022/08/31 10:48:26;;;;;;;2.72;1.35;;;14.30;99.90;;;;;;5018952;28;20400;-80
2022/08/31 10:51:33;;;;;;;2.53;1.50;;;14.50;99.90;;;;;;5017071;28;20460;-80
2022/08/31 10:54:27;;;;;;;1.58;1.40;;;14.30;99.90;;;;;;5019232;28;20406;-79
2022/08/31 10:57:09;;;;;;;1.95;1.27;;;14.10;99.90;;;;;;5016135;28;20763;-80
2022/08/31 11:00:41;;;;;;;1.67;1.58;;;14.30;99.90;;;;;;5017821;28;20414;-79
2022/08/31 11:03:23;;;;;;;3.77;1.30;;;14.50;99.90;;;;;;5063834;28;20890;-79
2022/08/31 11:06:04;;;;;;;1.60;1.33;;;14.20;99.90;;;;;;5048897;28;20819;-79
2022/08/31 11:08:56;;;;;;;2.90;1.48;;;14.00;99.90;;;;;;5025335;28;20389;-80
2022/08/31 11:11:39;;;;;;;2.50;1.40;;;13.90;99.90;;;;;;5016961;28;20484;-79
2022/08/31 11:14:32;;;;;;;1.90;1.50;;;13.90;99.90;;;;;;5047721;28;20415;-80
2022/08/31 11:17:24;;;;;;;1.80;1.48;;;13.80;99.90;;;;;;5018129;28;20400;-80
2022/08/31 11:20:05;;;;;;;3.40;1.55;;;13.80;99.90;;;;;;5034790;28;20386;-81
2022/08/31 11:22:50;;;;;;;3.28;1.60;;;13.80;99.90;;;;;;5021617;28;20413;-79
2022/08/31 11:25:23;;;;;;;2.67;1.55;;;13.80;99.90;;;;;;5016032;28;20819;-79
2022/08/31 11:28:11;;;;;;;2.80;1.55;;;14.00;99.90;;;;;;5027266;28;20813;-80
2022/08/31 11:30:47;;;;;;;2.63;1.40;;;14.20;99.90;;;;;;5048058;28;20816;-80
2022/08/31 11:33:26;;;;;;;3.10;1.30;;;14.20;99.90;;;;;;5018438;28;20439;-79
2022/08/31 11:36:09;;;;;;;1.98;1.50;;;14.20;99.90;;;;;;5020785;28;20403;-79
2022/08/31 11:38:53;;;;;;;2.53;1.40;;;14.10;99.90;;;;;;5015764;28;20564;-79
2022/08/31 11:41:45;;;;;;;2.07;1.30;;;14.20;99.90;;;;;;5022918;28;20871;-80
2022/08/31 11:44:30;;;;;;;4.63;1.33;;;14.40;99.90;;;;;;5009070;28;20426;-79
2022/08/31 11:47:25;;;;;;;2.40;1.50;;;14.50;99.90;;;;;;5016074;28;20881;-80
2022/08/31 11:50:31;;;;;;;2.55;1.35;;;14.50;99.90;;;;;;5007879;28;20844;-80
2022/08/31 11:53:16;;;;;;;1.85;1.52;;;14.70;99.90;;;;;;5020100;28;20500;-80
2022/08/31 11:55:48;;;;;;;3.10;1.50;;;14.60;99.90;;;;;;5018923;28;20405;-79
2022/08/31 11:58:30;;;;;;;1.63;1.30;;;14.50;99.90;;;;;;5017314;28;20406;-80
2022/08/31 12:01:08;;;;;;;1.63;1.40;;;14.40;99.90;;;;;;5013430;28;20397;-80
2022/08/31 12:03:44;;;;;;;2.05;1.60;;;14.20;99.90;;;;;;5017256;28;20446;-80
2022/08/31 12:06:24;;;;;;;2.95;1.95;;;14.20;99.90;;;;;;5018062;28;20403;-81
2022/08/31 12:09:09;;;;;;;2.43;1.47;;;14.10;99.90;;;;;;5018178;28;20399;-81
2022/08/31 12:11:54;;;;;;;2.75;1.80;;;14.00;99.90;;;;;;5012516;28;20762;-80
2022/08/31 12:14:41;;;;;;;2.40;1.40;;;14.20;99.90;;;;;;5019700;28;20388;-80
2022/08/31 12:17:25;;;;;;;3.47;1.50;;;14.30;99.90;;;;;;5007645;28;20830;-81
2022/08/31 12:20:20;;;;;;;1.52;1.30;;;14.40;99.90;;;;;;5008879;28;20444;-80
2022/08/31 12:26:00;;;;;;;1.40;1.30;;;14.60;99.90;;;;;;5016296;28;20406;-81
2022/08/31 12:28:31;;;;;;;1.42;1.10;;;14.90;99.90;;;;;;5017754;28;20409;-81
2022/08/31 12:31:04;;;;;;;1.60;1.20;;;15.10;99.90;;;;;;5018152;28;20879;-81
2022/08/31 12:33:35;;;;;;;1.83;1.30;;;15.40;99.90;;;;;;5016480;28;20425;-80
2022/08/31 12:36:17;;;;;;;1.70;1.20;;;15.40;99.90;;;;;;5017822;28;20407;-80
2022/08/31 12:38:45;;;;;;;3.90;1.10;;;15.70;99.90;;;;;;5015381;28;20457;-80
2022/08/31 12:41:13;;;;;;;2.67;0.90;;;16.00;99.90;;;;;;5018730;28;20418;-79
2022/08/31 12:43:48;;;;;;;2.78;0.90;;;16.10;99.90;;;;;;5053192;27;20409;-81
2022/08/31 12:46:39;;;;;;;1.45;0.95;;;16.00;99.90;;;;;;5019164;28;20398;-80
2022/08/31 12:49:36;;;;;;;2.53;1.20;;;15.70;99.90;;;;;;5021052;28;20450;-80
2022/08/31 12:52:22;;;;;;;2.00;1.20;;;15.30;99.90;;;;;;5019850;28;20389;-81
2022/08/31 12:55:42;;;;;;;1.70;0.97;;;15.00;99.90;;;;;;5020203;28;20470;-79
2022/08/31 12:58:49;;;;;;;1.25;0.98;;;14.80;99.90;;;;;;5042009;28;20406;-81
2022/08/31 13:01:25;;;;;;;2.88;1.17;;;14.70;99.90;;;;;;5033947;28;20820;-81
2022/08/31 13:04:00;;;;;;;2.30;1.20;;;14.50;99.90;;;;;;5020921;28;20843;-81
2022/08/31 13:06:33;;;;;;;1.10;1.00;;;14.50;99.90;;;;;;5021920;28;20405;-81
2022/08/31 13:09:00;;;;;;;1.60;0.98;;;14.40;99.90;;;;;;5011300;28;20448;-80
2022/08/31 13:11:38;;;;;;;1.38;0.90;;;14.30;99.90;;;;;;5011736;28;20432;-81
2022/08/31 13:14:17;;;;;;;1.25;1.00;;;14.20;99.90;;;;;;5011184;28;20500;-81
2022/08/31 13:16:49;;;;;;;1.60;0.93;;;14.30;99.90;;;;;;5015531;28;20843;-80
2022/08/31 13:19:29;;;;;;;1.55;1.00;;;14.30;99.90;;;;;;5021231;28;20955;-80
2022/08/31 13:21:59;;;;;;;1.52;1.00;;;14.40;99.90;;;;;;5017603;28;20440;-80
2022/08/31 13:24:30;;;;;;;1.67;0.90;;;14.40;99.90;;;;;;5020670;28;20411;-81
2022/08/31 13:27:21;;;;;;;1.88;1.05;;;14.40;99.90;;;;;;5020462;28;20452;-81
2022/08/31 13:29:54;;;;;;;1.13;0.95;;;14.30;99.90;;;;;;5014177;28;20441;-80
2022/08/31 13:32:29;;;;;;;1.15;1.05;;;14.20;99.90;;;;;;5011305;28;20761;-81
2022/08/31 13:35:03;;;;;;;1.40;1.00;;;14.10;99.90;;;;;;5012456;28;20759;-80
2022/08/31 13:37:37;;;;;;;2.45;1.10;;;14.00;99.90;;;;;;5015786;28;20443;-80
2022/08/31 13:40:09;;;;;;;1.02;0.90;;;14.10;99.90;;;;;;5010780;28;20773;-80
2022/08/31 13:42:44;;;;;;;1.50;0.98;;;14.10;99.90;;;;;;5017916;28;20405;-81
2022/08/31 13:45:31;;;;;;;2.83;1.00;;;14.20;99.90;;;;;;5021936;28;20462;-80
2022/08/31 13:48:11;;;;;;;3.50;1.10;;;14.20;99.90;;;;;;5021158;28;20468;-80
2022/08/31 13:50:50;;;;;;;1.70;1.00;;;14.20;99.90;;;;;;5017530;28;20407;-79
2022/08/31 13:53:54;;;;;;;1.60;0.90;;;14.10;99.90;;;;;;5017176;28;20406;-80